sensor_id;sensor_type;location;lat;lon;timestamp;P1;durP1;ratioP1;P2;durP2;ratioP2
13147;SDS011;6639;50.956;4.242;2023-09-07T00:01:31;9.77;;;6.57;;
13147;SDS011;6639;50.956;4.242;2023-09-07T00:03:58;5.88;;;5.38;;
13147;SDS011;6639;50.956;4.242;2023-09-07T00:06:25;6.38;;;5.78;;
13147;SDS011;6639;50.956;4.242;2023-09-07T00:08:52;6.38;;;5.80;;
13147;SDS011;6639;50.956;4.242;2023-09-07T00:11:19;7.53;;;6.72;;
13147;SDS011;6639;50.956;4.242;2023-09-07T00:13:46;6.78;;;6.15;;
13147;SDS011;6639;50.956;4.242;2023-09-07T00:16:14;6.50;;;5.90;;
13147;SDS011;6639;50.956;4.242;2023-09-07T00:18:41;6.68;;;5.97;;
13147;SDS011;6639;50.956;4.242;2023-09-07T00:21:08;6.68;;;6.07;;
13147;SDS011;6639;50.956;4.242;2023-09-07T00:23:35;8.27;;;5.38;;
13147;SDS011;6639;50.956;4.242;2023-09-07T00:26:02;6.53;;;5.90;;
13147;SDS011;6639;50.956;4.242;2023-09-07T00:28:29;9.90;;;6.05;;
13147;SDS011;6639;50.956;4.242;2023-09-07T00:30:56;5.82;;;5.28;;
13147;SDS011;6639;50.956;4.242;2023-09-07T00:33:24;6.57;;;5.53;;
13147;SDS011;6639;50.956;4.242;2023-09-07T00:35:51;7.07;;;6.20;;
13147;SDS011;6639;50.956;4.242;2023-09-07T00:38:18;6.75;;;6.05;;
13147;SDS011;6639;50.956;4.242;2023-09-07T00:40:45;5.95;;;5.45;;
13147;SDS011;6639;50.956;4.242;2023-09-07T00:43:12;7.20;;;6.60;;
13147;SDS011;6639;50.956;4.242;2023-09-07T00:45:39;6.40;;;5.90;;
13147;SDS011;6639;50.956;4.242;2023-09-07T00:48:06;8.15;;;7.18;;
13147;SDS011;6639;50.956;4.242;2023-09-07T00:50:35;7.05;;;6.35;;
13147;SDS011;6639;50.956;4.242;2023-09-07T00:53:02;7.10;;;6.50;;
13147;SDS011;6639;50.956;4.242;2023-09-07T00:55:32;5.85;;;5.05;;
13147;SDS011;6639;50.956;4.242;2023-09-07T00:58:00;6.10;;;5.68;;
13147;SDS011;6639;50.956;4.242;2023-09-07T01:00:28;6.63;;;5.88;;
13147;SDS011;6639;50.956;4.242;2023-09-07T01:02:55;8.45;;;6.47;;
13147;SDS011;6639;50.956;4.242;2023-09-07T01:05:23;7.25;;;6.07;;
13147;SDS011;6639;50.956;4.242;2023-09-07T01:07:58;5.93;;;5.43;;
13147;SDS011;6639;50.956;4.242;2023-09-07T01:10:32;6.18;;;5.53;;
13147;SDS011;6639;50.956;4.242;2023-09-07T01:12:59;5.93;;;5.43;;
13147;SDS011;6639;50.956;4.242;2023-09-07T01:15:26;6.38;;;5.78;;
13147;SDS011;6639;50.956;4.242;2023-09-07T01:17:53;6.18;;;5.43;;
13147;SDS011;6639;50.956;4.242;2023-09-07T01:20:21;6.60;;;6.00;;
13147;SDS011;6639;50.956;4.242;2023-09-07T01:22:51;6.57;;;6.03;;
13147;SDS011;6639;50.956;4.242;2023-09-07T01:25:20;9.50;;;6.20;;
13147;SDS011;6639;50.956;4.242;2023-09-07T01:27:47;7.15;;;6.50;;
13147;SDS011;6639;50.956;4.242;2023-09-07T01:30:16;6.35;;;5.28;;
13147;SDS011;6639;50.956;4.242;2023-09-07T01:32:43;6.32;;;5.55;;
13147;SDS011;6639;50.956;4.242;2023-09-07T01:35:10;6.78;;;6.18;;
13147;SDS011;6639;50.956;4.242;2023-09-07T01:37:39;7.00;;;6.40;;
13147;SDS011;6639;50.956;4.242;2023-09-07T01:40:08;6.68;;;6.03;;
13147;SDS011;6639;50.956;4.242;2023-09-07T01:42:35;6.95;;;6.35;;
13147;SDS011;6639;50.956;4.242;2023-09-07T01:45:03;7.18;;;5.95;;
13147;SDS011;6639;50.956;4.242;2023-09-07T01:47:30;8.25;;;5.55;;
13147;SDS011;6639;50.956;4.242;2023-09-07T01:49:57;6.63;;;6.05;;
13147;SDS011;6639;50.956;4.242;2023-09-07T01:52:24;7.50;;;5.72;;
13147;SDS011;6639;50.956;4.242;2023-09-07T01:54:51;5.28;;;4.88;;
13147;SDS011;6639;50.956;4.242;2023-09-07T01:57:19;5.95;;;5.35;;
13147;SDS011;6639;50.956;4.242;2023-09-07T01:59:46;5.93;;;5.30;;
13147;SDS011;6639;50.956;4.242;2023-09-07T02:02:14;5.30;;;4.80;;
13147;SDS011;6639;50.956;4.242;2023-09-07T02:04:41;4.07;;;3.67;;
13147;SDS011;6639;50.956;4.242;2023-09-07T02:07:11;3.28;;;3.05;;
13147;SDS011;6639;50.956;4.242;2023-09-07T02:09:38;3.40;;;3.08;;
13147;SDS011;6639;50.956;4.242;2023-09-07T02:12:05;4.18;;;3.85;;
13147;SDS011;6639;50.956;4.242;2023-09-07T02:14:34;4.70;;;4.30;;
13147;SDS011;6639;50.956;4.242;2023-09-07T02:17:00;5.07;;;4.68;;
13147;SDS011;6639;50.956;4.242;2023-09-07T02:19:27;6.30;;;5.80;;
13147;SDS011;6639;50.956;4.242;2023-09-07T02:21:54;5.78;;;5.20;;
13147;SDS011;6639;50.956;4.242;2023-09-07T02:24:21;6.03;;;5.43;;
13147;SDS011;6639;50.956;4.242;2023-09-07T02:26:48;6.35;;;5.85;;
13147;SDS011;6639;50.956;4.242;2023-09-07T02:29:15;6.47;;;5.80;;
13147;SDS011;6639;50.956;4.242;2023-09-07T02:31:43;7.65;;;6.05;;
13147;SDS011;6639;50.956;4.242;2023-09-07T02:34:10;5.80;;;5.35;;
13147;SDS011;6639;50.956;4.242;2023-09-07T02:36:37;9.25;;;5.57;;
13147;SDS011;6639;50.956;4.242;2023-09-07T02:39:04;7.13;;;6.53;;
13147;SDS011;6639;50.956;4.242;2023-09-07T02:41:33;6.60;;;6.10;;
13147;SDS011;6639;50.956;4.242;2023-09-07T02:44:00;8.10;;;6.70;;
13147;SDS011;6639;50.956;4.242;2023-09-07T02:46:28;7.05;;;6.35;;
13147;SDS011;6639;50.956;4.242;2023-09-07T02:48:56;9.32;;;6.53;;
13147;SDS011;6639;50.956;4.242;2023-09-07T02:51:24;6.85;;;6.18;;
13147;SDS011;6639;50.956;4.242;2023-09-07T02:53:51;6.70;;;6.05;;
13147;SDS011;6639;50.956;4.242;2023-09-07T02:56:19;7.53;;;6.28;;
13147;SDS011;6639;50.956;4.242;2023-09-07T02:58:46;6.78;;;5.50;;
13147;SDS011;6639;50.956;4.242;2023-09-07T03:01:13;4.82;;;4.53;;
13147;SDS011;6639;50.956;4.242;2023-09-07T03:03:44;5.65;;;5.25;;
13147;SDS011;6639;50.956;4.242;2023-09-07T03:06:12;7.18;;;5.38;;
13147;SDS011;6639;50.956;4.242;2023-09-07T03:08:41;6.28;;;5.78;;
13147;SDS011;6639;50.956;4.242;2023-09-07T03:11:08;6.15;;;5.65;;
13147;SDS011;6639;50.956;4.242;2023-09-07T03:13:35;5.88;;;5.35;;
13147;SDS011;6639;50.956;4.242;2023-09-07T03:16:03;5.22;;;4.82;;
13147;SDS011;6639;50.956;4.242;2023-09-07T03:18:30;6.45;;;5.72;;
13147;SDS011;6639;50.956;4.242;2023-09-07T03:20:58;6.20;;;5.50;;
13147;SDS011;6639;50.956;4.242;2023-09-07T03:23:27;6.28;;;5.68;;
13147;SDS011;6639;50.956;4.242;2023-09-07T03:25:55;7.15;;;6.28;;
13147;SDS011;6639;50.956;4.242;2023-09-07T03:28:22;6.43;;;5.82;;
13147;SDS011;6639;50.956;4.242;2023-09-07T03:30:50;7.38;;;6.65;;
13147;SDS011;6639;50.956;4.242;2023-09-07T03:33:17;7.43;;;6.70;;
13147;SDS011;6639;50.956;4.242;2023-09-07T03:35:43;8.15;;;7.32;;
13147;SDS011;6639;50.956;4.242;2023-09-07T03:38:10;7.63;;;6.85;;
13147;SDS011;6639;50.956;4.242;2023-09-07T03:40:39;7.22;;;6.53;;
13147;SDS011;6639;50.956;4.242;2023-09-07T03:43:05;9.63;;;7.35;;
13147;SDS011;6639;50.956;4.242;2023-09-07T03:45:32;8.15;;;7.45;;
13147;SDS011;6639;50.956;4.242;2023-09-07T03:47:59;7.90;;;7.20;;
13147;SDS011;6639;50.956;4.242;2023-09-07T03:50:26;7.65;;;6.95;;
13147;SDS011;6639;50.956;4.242;2023-09-07T03:52:54;8.70;;;7.90;;
13147;SDS011;6639;50.956;4.242;2023-09-07T03:55:21;8.57;;;7.80;;
13147;SDS011;6639;50.956;4.242;2023-09-07T03:57:49;8.27;;;7.45;;
13147;SDS011;6639;50.956;4.242;2023-09-07T04:00:16;10.10;;;6.75;;
13147;SDS011;6639;50.956;4.242;2023-09-07T04:02:43;7.65;;;6.95;;
13147;SDS011;6639;50.956;4.242;2023-09-07T04:05:11;7.50;;;6.50;;
13147;SDS011;6639;50.956;4.242;2023-09-07T04:07:38;7.45;;;6.57;;
13147;SDS011;6639;50.956;4.242;2023-09-07T04:10:05;6.32;;;5.72;;
13147;SDS011;6639;50.956;4.242;2023-09-07T04:12:32;9.18;;;6.95;;
13147;SDS011;6639;50.956;4.242;2023-09-07T04:15:01;7.05;;;6.45;;
13147;SDS011;6639;50.956;4.242;2023-09-07T04:17:28;7.95;;;6.35;;
13147;SDS011;6639;50.956;4.242;2023-09-07T04:19:57;9.32;;;6.78;;
13147;SDS011;6639;50.956;4.242;2023-09-07T04:22:24;7.38;;;6.63;;
13147;SDS011;6639;50.956;4.242;2023-09-07T04:24:51;8.65;;;6.38;;
13147;SDS011;6639;50.956;4.242;2023-09-07T04:27:18;6.55;;;5.97;;
13147;SDS011;6639;50.956;4.242;2023-09-07T04:29:45;5.82;;;5.30;;
13147;SDS011;6639;50.956;4.242;2023-09-07T04:32:13;7.07;;;5.55;;
13147;SDS011;6639;50.956;4.242;2023-09-07T04:34:40;7.45;;;6.80;;
13147;SDS011;6639;50.956;4.242;2023-09-07T04:37:07;7.75;;;6.95;;
13147;SDS011;6639;50.956;4.242;2023-09-07T04:39:34;7.90;;;7.10;;
13147;SDS011;6639;50.956;4.242;2023-09-07T04:42:01;8.18;;;7.32;;
13147;SDS011;6639;50.956;4.242;2023-09-07T04:44:27;8.85;;;7.15;;
13147;SDS011;6639;50.956;4.242;2023-09-07T04:46:54;10.73;;;7.57;;
13147;SDS011;6639;50.956;4.242;2023-09-07T04:49:23;7.28;;;6.57;;
13147;SDS011;6639;50.956;4.242;2023-09-07T04:51:52;7.55;;;6.80;;
13147;SDS011;6639;50.956;4.242;2023-09-07T04:54:19;6.50;;;6.00;;
13147;SDS011;6639;50.956;4.242;2023-09-07T04:56:47;6.65;;;6.15;;
13147;SDS011;6639;50.956;4.242;2023-09-07T04:59:14;7.28;;;6.70;;
13147;SDS011;6639;50.956;4.242;2023-09-07T05:01:41;6.95;;;6.25;;
13147;SDS011;6639;50.956;4.242;2023-09-07T05:04:08;9.57;;;6.10;;
13147;SDS011;6639;50.956;4.242;2023-09-07T05:06:36;6.10;;;5.60;;
13147;SDS011;6639;50.956;4.242;2023-09-07T05:09:05;6.38;;;5.85;;
13147;SDS011;6639;50.956;4.242;2023-09-07T05:11:32;6.25;;;5.75;;
13147;SDS011;6639;50.956;4.242;2023-09-07T05:14:00;5.72;;;5.28;;
13147;SDS011;6639;50.956;4.242;2023-09-07T05:16:27;5.50;;;5.10;;
13147;SDS011;6639;50.956;4.242;2023-09-07T05:18:54;6.05;;;5.45;;
13147;SDS011;6639;50.956;4.242;2023-09-07T05:21:21;5.80;;;5.22;;
13147;SDS011;6639;50.956;4.242;2023-09-07T05:23:49;6.15;;;5.65;;
13147;SDS011;6639;50.956;4.242;2023-09-07T05:26:20;7.15;;;6.15;;
13147;SDS011;6639;50.956;4.242;2023-09-07T05:28:48;6.55;;;5.95;;
13147;SDS011;6639;50.956;4.242;2023-09-07T05:31:15;7.55;;;6.10;;
13147;SDS011;6639;50.956;4.242;2023-09-07T05:33:42;7.20;;;6.53;;
13147;SDS011;6639;50.956;4.242;2023-09-07T05:36:09;7.70;;;6.95;;
13147;SDS011;6639;50.956;4.242;2023-09-07T05:38:35;7.45;;;6.53;;
13147;SDS011;6639;50.956;4.242;2023-09-07T05:41:04;7.28;;;6.68;;
13147;SDS011;6639;50.956;4.242;2023-09-07T05:43:31;9.20;;;7.30;;
13147;SDS011;6639;50.956;4.242;2023-09-07T05:45:58;7.80;;;7.03;;
13147;SDS011;6639;50.956;4.242;2023-09-07T05:48:25;7.25;;;6.65;;
13147;SDS011;6639;50.956;4.242;2023-09-07T05:50:52;9.43;;;7.15;;
13147;SDS011;6639;50.956;4.242;2023-09-07T05:53:19;7.38;;;6.68;;
13147;SDS011;6639;50.956;4.242;2023-09-07T05:55:46;7.18;;;6.57;;
13147;SDS011;6639;50.956;4.242;2023-09-07T05:58:14;7.78;;;6.70;;
13147;SDS011;6639;50.956;4.242;2023-09-07T06:00:41;8.68;;;7.20;;
13147;SDS011;6639;50.956;4.242;2023-09-07T06:03:08;7.82;;;7.13;;
13147;SDS011;6639;50.956;4.242;2023-09-07T06:05:36;8.93;;;6.80;;
13147;SDS011;6639;50.956;4.242;2023-09-07T06:08:04;8.02;;;7.32;;
13147;SDS011;6639;50.956;4.242;2023-09-07T06:10:32;8.00;;;7.30;;
13147;SDS011;6639;50.956;4.242;2023-09-07T06:12:59;10.05;;;7.40;;
13147;SDS011;6639;50.956;4.242;2023-09-07T06:15:29;8.68;;;7.50;;
13147;SDS011;6639;50.956;4.242;2023-09-07T06:17:56;8.18;;;7.38;;
13147;SDS011;6639;50.956;4.242;2023-09-07T06:20:23;8.85;;;7.75;;
13147;SDS011;6639;50.956;4.242;2023-09-07T06:22:50;8.27;;;6.82;;
13147;SDS011;6639;50.956;4.242;2023-09-07T06:25:17;10.88;;;6.85;;
13147;SDS011;6639;50.956;4.242;2023-09-07T06:27:44;7.82;;;6.55;;
13147;SDS011;6639;50.956;4.242;2023-09-07T06:30:11;7.28;;;6.68;;
13147;SDS011;6639;50.956;4.242;2023-09-07T06:32:39;7.47;;;6.78;;
13147;SDS011;6639;50.956;4.242;2023-09-07T06:35:07;7.40;;;6.70;;
13147;SDS011;6639;50.956;4.242;2023-09-07T06:37:35;7.75;;;6.95;;
13147;SDS011;6639;50.956;4.242;2023-09-07T06:40:05;7.85;;;7.15;;
13147;SDS011;6639;50.956;4.242;2023-09-07T06:42:34;8.73;;;7.28;;
13147;SDS011;6639;50.956;4.242;2023-09-07T06:45:01;12.38;;;8.25;;
13147;SDS011;6639;50.956;4.242;2023-09-07T06:47:28;8.07;;;7.05;;
13147;SDS011;6639;50.956;4.242;2023-09-07T06:49:56;8.93;;;8.02;;
13147;SDS011;6639;50.956;4.242;2023-09-07T06:52:23;8.85;;;8.05;;
13147;SDS011;6639;50.956;4.242;2023-09-07T06:54:51;8.95;;;7.60;;
13147;SDS011;6639;50.956;4.242;2023-09-07T06:57:19;13.07;;;8.35;;
13147;SDS011;6639;50.956;4.242;2023-09-07T06:59:46;11.00;;;7.85;;
13147;SDS011;6639;50.956;4.242;2023-09-07T07:02:13;9.82;;;8.02;;
13147;SDS011;6639;50.956;4.242;2023-09-07T07:04:40;10.27;;;7.97;;
13147;SDS011;6639;50.956;4.242;2023-09-07T07:07:10;9.75;;;7.72;;
13147;SDS011;6639;50.956;4.242;2023-09-07T07:09:37;8.23;;;7.43;;
13147;SDS011;6639;50.956;4.242;2023-09-07T07:12:04;8.68;;;7.78;;
13147;SDS011;6639;50.956;4.242;2023-09-07T07:14:31;9.23;;;8.20;;
13147;SDS011;6639;50.956;4.242;2023-09-07T07:16:58;8.90;;;8.00;;
13147;SDS011;6639;50.956;4.242;2023-09-07T07:19:26;8.50;;;7.55;;
13147;SDS011;6639;50.956;4.242;2023-09-07T07:21:53;8.43;;;7.50;;
13147;SDS011;6639;50.956;4.242;2023-09-07T07:24:22;9.70;;;7.10;;
13147;SDS011;6639;50.956;4.242;2023-09-07T07:26:49;9.30;;;8.27;;
13147;SDS011;6639;50.956;4.242;2023-09-07T07:29:16;9.85;;;7.65;;
13147;SDS011;6639;50.956;4.242;2023-09-07T07:31:42;7.97;;;7.20;;
13147;SDS011;6639;50.956;4.242;2023-09-07T07:34:10;7.95;;;7.15;;
13147;SDS011;6639;50.956;4.242;2023-09-07T07:36:37;8.63;;;7.82;;
13147;SDS011;6639;50.956;4.242;2023-09-07T07:39:04;7.80;;;7.05;;
13147;SDS011;6639;50.956;4.242;2023-09-07T07:41:33;8.02;;;7.32;;
13147;SDS011;6639;50.956;4.242;2023-09-07T07:44:00;7.13;;;6.35;;
13147;SDS011;6639;50.956;4.242;2023-09-07T07:46:28;7.45;;;6.75;;
13147;SDS011;6639;50.956;4.242;2023-09-07T07:48:54;8.63;;;7.00;;
13147;SDS011;6639;50.956;4.242;2023-09-07T07:51:21;7.55;;;6.88;;
13147;SDS011;6639;50.956;4.242;2023-09-07T07:53:48;8.80;;;7.13;;
13147;SDS011;6639;50.956;4.242;2023-09-07T07:56:15;7.72;;;6.75;;
13147;SDS011;6639;50.956;4.242;2023-09-07T07:58:44;6.95;;;6.35;;
13147;SDS011;6639;50.956;4.242;2023-09-07T08:01:14;8.45;;;6.35;;
13147;SDS011;6639;50.956;4.242;2023-09-07T08:03:41;7.07;;;6.10;;
13147;SDS011;6639;50.956;4.242;2023-09-07T08:06:08;6.70;;;6.03;;
13147;SDS011;6639;50.956;4.242;2023-09-07T08:08:35;6.45;;;5.80;;
13147;SDS011;6639;50.956;4.242;2023-09-07T08:11:02;7.90;;;6.20;;
13147;SDS011;6639;50.956;4.242;2023-09-07T08:13:31;5.82;;;5.22;;
13147;SDS011;6639;50.956;4.242;2023-09-07T08:16:00;6.10;;;5.53;;
13147;SDS011;6639;50.956;4.242;2023-09-07T08:18:27;5.90;;;5.38;;
13147;SDS011;6639;50.956;4.242;2023-09-07T08:20:55;6.07;;;5.28;;
13147;SDS011;6639;50.956;4.242;2023-09-07T08:23:22;5.63;;;5.00;;
13147;SDS011;6639;50.956;4.242;2023-09-07T08:25:50;5.50;;;5.10;;
13147;SDS011;6639;50.956;4.242;2023-09-07T08:28:17;8.73;;;5.72;;
13147;SDS011;6639;50.956;4.242;2023-09-07T08:30:48;6.10;;;5.50;;
13147;SDS011;6639;50.956;4.242;2023-09-07T08:33:17;6.18;;;4.90;;
13147;SDS011;6639;50.956;4.242;2023-09-07T08:35:44;7.20;;;5.45;;
13147;SDS011;6639;50.956;4.242;2023-09-07T08:38:11;5.55;;;5.13;;
13147;SDS011;6639;50.956;4.242;2023-09-07T08:40:38;5.78;;;5.10;;
13147;SDS011;6639;50.956;4.242;2023-09-07T08:43:08;6.93;;;5.35;;
13147;SDS011;6639;50.956;4.242;2023-09-07T08:45:37;5.30;;;4.80;;
13147;SDS011;6639;50.956;4.242;2023-09-07T08:48:08;5.30;;;4.80;;
13147;SDS011;6639;50.956;4.242;2023-09-07T08:50:37;5.55;;;5.10;;
13147;SDS011;6639;50.956;4.242;2023-09-07T08:53:07;16.98;;;5.72;;
13147;SDS011;6639;50.956;4.242;2023-09-07T08:55:35;5.60;;;4.57;;
13147;SDS011;6639;50.956;4.242;2023-09-07T08:58:02;5.32;;;4.75;;
13147;SDS011;6639;50.956;4.242;2023-09-07T09:00:29;6.50;;;4.78;;
13147;SDS011;6639;50.956;4.242;2023-09-07T09:02:56;4.90;;;4.50;;
13147;SDS011;6639;50.956;4.242;2023-09-07T09:05:23;4.95;;;4.57;;
13147;SDS011;6639;50.956;4.242;2023-09-07T09:08:01;8.07;;;4.88;;
13147;SDS011;6639;50.956;4.242;2023-09-07T09:10:29;6.10;;;4.47;;
13147;SDS011;6639;50.956;4.242;2023-09-07T09:12:56;5.45;;;4.45;;
13147;SDS011;6639;50.956;4.242;2023-09-07T09:15:24;4.18;;;3.88;;
13147;SDS011;6639;50.956;4.242;2023-09-07T09:17:52;5.93;;;4.03;;
13147;SDS011;6639;50.956;4.242;2023-09-07T09:20:20;4.57;;;4.00;;
13147;SDS011;6639;50.956;4.242;2023-09-07T09:22:48;5.05;;;3.75;;
13147;SDS011;6639;50.956;4.242;2023-09-07T09:25:20;5.68;;;3.90;;
13147;SDS011;6639;50.956;4.242;2023-09-07T09:27:47;6.57;;;4.53;;
13147;SDS011;6639;50.956;4.242;2023-09-07T09:30:14;4.13;;;3.72;;
13147;SDS011;6639;50.956;4.242;2023-09-07T09:32:41;7.78;;;4.30;;
13147;SDS011;6639;50.956;4.242;2023-09-07T09:35:09;5.82;;;4.03;;
13147;SDS011;6639;50.956;4.242;2023-09-07T09:37:43;6.35;;;3.70;;
13147;SDS011;6639;50.956;4.242;2023-09-07T09:40:11;5.40;;;3.50;;
13147;SDS011;6639;50.956;4.242;2023-09-07T09:42:42;4.47;;;4.03;;
13147;SDS011;6639;50.956;4.242;2023-09-07T09:45:10;4.75;;;3.95;;
13147;SDS011;6639;50.956;4.242;2023-09-07T09:47:38;3.42;;;3.17;;
13147;SDS011;6639;50.956;4.242;2023-09-07T09:50:06;4.80;;;4.00;;
13147;SDS011;6639;50.956;4.242;2023-09-07T09:52:36;4.38;;;3.50;;
13147;SDS011;6639;50.956;4.242;2023-09-07T09:55:04;4.10;;;3.80;;
13147;SDS011;6639;50.956;4.242;2023-09-07T09:57:33;4.10;;;3.47;;
13147;SDS011;6639;50.956;4.242;2023-09-07T10:00:02;5.07;;;3.55;;
13147;SDS011;6639;50.956;4.242;2023-09-07T10:02:44;3.30;;;3.08;;
13147;SDS011;6639;50.956;4.242;2023-09-07T10:05:16;4.03;;;3.63;;
13147;SDS011;6639;50.956;4.242;2023-09-07T10:07:45;3.75;;;3.45;;
13147;SDS011;6639;50.956;4.242;2023-09-07T10:10:15;3.67;;;3.38;;
13147;SDS011;6639;50.956;4.242;2023-09-07T10:12:42;4.07;;;3.05;;
13147;SDS011;6639;50.956;4.242;2023-09-07T10:15:21;3.55;;;3.30;;
13147;SDS011;6639;50.956;4.242;2023-09-07T10:17:49;4.63;;;3.42;;
13147;SDS011;6639;50.956;4.242;2023-09-07T10:20:18;5.57;;;3.28;;
13147;SDS011;6639;50.956;4.242;2023-09-07T10:22:48;3.58;;;3.20;;
13147;SDS011;6639;50.956;4.242;2023-09-07T10:25:19;5.15;;;3.72;;
13147;SDS011;6639;50.956;4.242;2023-09-07T10:27:47;4.25;;;3.95;;
13147;SDS011;6639;50.956;4.242;2023-09-07T10:30:14;10.43;;;4.05;;
13147;SDS011;6639;50.956;4.242;2023-09-07T10:32:45;4.05;;;3.50;;
13147;SDS011;6639;50.956;4.242;2023-09-07T10:35:13;3.53;;;3.22;;
13147;SDS011;6639;50.956;4.242;2023-09-07T10:37:41;3.50;;;3.20;;
13147;SDS011;6639;50.956;4.242;2023-09-07T10:40:10;3.63;;;3.40;;
13147;SDS011;6639;50.956;4.242;2023-09-07T10:42:38;4.75;;;3.40;;
13147;SDS011;6639;50.956;4.242;2023-09-07T10:45:09;3.95;;;3.58;;
13147;SDS011;6639;50.956;4.242;2023-09-07T10:47:40;3.80;;;3.50;;
13147;SDS011;6639;50.956;4.242;2023-09-07T10:50:09;4.00;;;3.55;;
13147;SDS011;6639;50.956;4.242;2023-09-07T10:52:37;4.25;;;3.78;;
13147;SDS011;6639;50.956;4.242;2023-09-07T10:55:06;3.50;;;3.17;;
13147;SDS011;6639;50.956;4.242;2023-09-07T10:57:41;4.15;;;3.75;;
13147;SDS011;6639;50.956;4.242;2023-09-07T11:00:09;3.85;;;3.30;;
13147;SDS011;6639;50.956;4.242;2023-09-07T11:02:37;3.63;;;2.97;;
13147;SDS011;6639;50.956;4.242;2023-09-07T11:05:04;4.57;;;3.40;;
13147;SDS011;6639;50.956;4.242;2023-09-07T11:07:33;3.47;;;3.17;;
13147;SDS011;6639;50.956;4.242;2023-09-07T11:10:01;4.25;;;3.45;;
13147;SDS011;6639;50.956;4.242;2023-09-07T11:12:29;3.92;;;3.50;;
13147;SDS011;6639;50.956;4.242;2023-09-07T11:14:56;4.00;;;3.20;;
13147;SDS011;6639;50.956;4.242;2023-09-07T11:17:27;3.30;;;3.03;;
13147;SDS011;6639;50.956;4.242;2023-09-07T11:19:54;3.25;;;3.05;;
13147;SDS011;6639;50.956;4.242;2023-09-07T11:22:21;3.97;;;3.25;;
13147;SDS011;6639;50.956;4.242;2023-09-07T11:24:50;3.80;;;2.90;;
13147;SDS011;6639;50.956;4.242;2023-09-07T11:27:17;3.35;;;3.03;;
13147;SDS011;6639;50.956;4.242;2023-09-07T11:29:50;3.58;;;3.30;;
13147;SDS011;6639;50.956;4.242;2023-09-07T11:32:18;3.60;;;3.38;;
13147;SDS011;6639;50.956;4.242;2023-09-07T11:34:47;6.50;;;3.88;;
13147;SDS011;6639;50.956;4.242;2023-09-07T11:37:15;3.70;;;3.10;;
13147;SDS011;6639;50.956;4.242;2023-09-07T11:39:42;3.45;;;3.15;;
13147;SDS011;6639;50.956;4.242;2023-09-07T11:42:11;6.57;;;3.50;;
13147;SDS011;6639;50.956;4.242;2023-09-07T11:44:38;5.55;;;3.58;;
13147;SDS011;6639;50.956;4.242;2023-09-07T11:47:05;3.05;;;2.85;;
13147;SDS011;6639;50.956;4.242;2023-09-07T11:49:32;3.67;;;3.38;;
13147;SDS011;6639;50.956;4.242;2023-09-07T11:51:59;5.57;;;3.00;;
13147;SDS011;6639;50.956;4.242;2023-09-07T11:54:26;3.50;;;3.13;;
13147;SDS011;6639;50.956;4.242;2023-09-07T11:56:53;3.55;;;2.88;;
13147;SDS011;6639;50.956;4.242;2023-09-07T11:59:21;3.17;;;2.88;;
13147;SDS011;6639;50.956;4.242;2023-09-07T12:01:48;2.95;;;2.75;;
13147;SDS011;6639;50.956;4.242;2023-09-07T12:04:15;7.40;;;3.50;;
13147;SDS011;6639;50.956;4.242;2023-09-07T12:06:42;4.10;;;3.65;;
13147;SDS011;6639;50.956;4.242;2023-09-07T12:09:09;3.85;;;3.55;;
13147;SDS011;6639;50.956;4.242;2023-09-07T12:11:36;2.80;;;2.60;;
13147;SDS011;6639;50.956;4.242;2023-09-07T12:14:03;3.45;;;2.55;;
13147;SDS011;6639;50.956;4.242;2023-09-07T12:16:32;5.45;;;3.60;;
13147;SDS011;6639;50.956;4.242;2023-09-07T12:18:59;3.33;;;3.10;;
13147;SDS011;6639;50.956;4.242;2023-09-07T12:21:25;3.30;;;3.10;;
13147;SDS011;6639;50.956;4.242;2023-09-07T12:23:52;3.80;;;3.50;;
13147;SDS011;6639;50.956;4.242;2023-09-07T12:26:19;3.10;;;2.80;;
13147;SDS011;6639;50.956;4.242;2023-09-07T12:28:46;3.58;;;3.28;;
13147;SDS011;6639;50.956;4.242;2023-09-07T12:31:13;5.15;;;3.05;;
13147;SDS011;6639;50.956;4.242;2023-09-07T12:33:41;3.03;;;2.83;;
13147;SDS011;6639;50.956;4.242;2023-09-07T12:36:08;3.42;;;3.13;;
13147;SDS011;6639;50.956;4.242;2023-09-07T12:38:36;3.00;;;2.72;;
13147;SDS011;6639;50.956;4.242;2023-09-07T12:41:03;2.90;;;2.60;;
13147;SDS011;6639;50.956;4.242;2023-09-07T12:43:30;2.97;;;2.78;;
13147;SDS011;6639;50.956;4.242;2023-09-07T12:45:58;3.22;;;2.85;;
13147;SDS011;6639;50.956;4.242;2023-09-07T12:48:25;3.50;;;2.78;;
13147;SDS011;6639;50.956;4.242;2023-09-07T12:50:54;3.35;;;2.80;;
13147;SDS011;6639;50.956;4.242;2023-09-07T12:53:21;3.22;;;2.90;;
13147;SDS011;6639;50.956;4.242;2023-09-07T12:55:51;2.90;;;2.60;;
13147;SDS011;6639;50.956;4.242;2023-09-07T12:58:18;3.40;;;2.88;;
13147;SDS011;6639;50.956;4.242;2023-09-07T13:00:45;3.05;;;2.85;;
13147;SDS011;6639;50.956;4.242;2023-09-07T13:03:13;6.50;;;3.70;;
13147;SDS011;6639;50.956;4.242;2023-09-07T13:05:40;4.30;;;3.13;;
13147;SDS011;6639;50.956;4.242;2023-09-07T13:08:08;3.42;;;2.67;;
13147;SDS011;6639;50.956;4.242;2023-09-07T13:10:36;2.90;;;2.70;;
13147;SDS011;6639;50.956;4.242;2023-09-07T13:13:03;3.55;;;3.17;;
13147;SDS011;6639;50.956;4.242;2023-09-07T13:15:30;4.53;;;2.97;;
13147;SDS011;6639;50.956;4.242;2023-09-07T13:17:57;3.03;;;2.83;;
13147;SDS011;6639;50.956;4.242;2023-09-07T13:20:24;3.95;;;2.95;;
13147;SDS011;6639;50.956;4.242;2023-09-07T13:22:51;3.47;;;3.08;;
13147;SDS011;6639;50.956;4.242;2023-09-07T13:25:20;3.67;;;2.90;;
13147;SDS011;6639;50.956;4.242;2023-09-07T13:27:46;3.45;;;3.10;;
13147;SDS011;6639;50.956;4.242;2023-09-07T13:30:14;3.10;;;2.70;;
13147;SDS011;6639;50.956;4.242;2023-09-07T13:32:41;4.18;;;3.00;;
13147;SDS011;6639;50.956;4.242;2023-09-07T13:35:11;3.75;;;3.10;;
13147;SDS011;6639;50.956;4.242;2023-09-07T13:37:37;3.28;;;2.97;;
13147;SDS011;6639;50.956;4.242;2023-09-07T13:40:05;2.92;;;2.67;;
13147;SDS011;6639;50.956;4.242;2023-09-07T13:42:34;3.53;;;2.92;;
13147;SDS011;6639;50.956;4.242;2023-09-07T13:45:04;3.50;;;2.72;;
13147;SDS011;6639;50.956;4.242;2023-09-07T13:47:31;3.30;;;3.10;;
13147;SDS011;6639;50.956;4.242;2023-09-07T13:49:58;3.50;;;3.20;;
13147;SDS011;6639;50.956;4.242;2023-09-07T13:52:25;3.22;;;2.75;;
13147;SDS011;6639;50.956;4.242;2023-09-07T13:54:52;5.75;;;3.15;;
13147;SDS011;6639;50.956;4.242;2023-09-07T13:57:19;3.83;;;3.10;;
13147;SDS011;6639;50.956;4.242;2023-09-07T13:59:47;4.03;;;3.15;;
13147;SDS011;6639;50.956;4.242;2023-09-07T14:02:14;3.33;;;3.03;;
13147;SDS011;6639;50.956;4.242;2023-09-07T14:04:41;3.03;;;2.83;;
13147;SDS011;6639;50.956;4.242;2023-09-07T14:07:08;3.45;;;2.85;;
13147;SDS011;6639;50.956;4.242;2023-09-07T14:09:35;3.22;;;2.92;;
13147;SDS011;6639;50.956;4.242;2023-09-07T14:12:02;3.35;;;3.05;;
13147;SDS011;6639;50.956;4.242;2023-09-07T14:14:29;5.72;;;3.05;;
13147;SDS011;6639;50.956;4.242;2023-09-07T14:16:57;5.60;;;3.17;;
13147;SDS011;6639;50.956;4.242;2023-09-07T14:19:25;3.25;;;2.60;;
13147;SDS011;6639;50.956;4.242;2023-09-07T14:21:55;3.03;;;2.83;;
13147;SDS011;6639;50.956;4.242;2023-09-07T14:24:23;3.38;;;3.10;;
13147;SDS011;6639;50.956;4.242;2023-09-07T14:26:50;3.42;;;3.13;;
13147;SDS011;6639;50.956;4.242;2023-09-07T14:29:17;4.68;;;3.00;;
13147;SDS011;6639;50.956;4.242;2023-09-07T14:31:44;3.20;;;3.00;;
13147;SDS011;6639;50.956;4.242;2023-09-07T14:34:13;3.70;;;3.08;;
13147;SDS011;6639;50.956;4.242;2023-09-07T14:36:40;4.85;;;3.53;;
13147;SDS011;6639;50.956;4.242;2023-09-07T14:39:07;4.55;;;3.00;;
13147;SDS011;6639;50.956;4.242;2023-09-07T14:41:34;3.97;;;3.50;;
13147;SDS011;6639;50.956;4.242;2023-09-07T14:44:01;3.90;;;3.60;;
13147;SDS011;6639;50.956;4.242;2023-09-07T14:46:28;4.07;;;3.67;;
13147;SDS011;6639;50.956;4.242;2023-09-07T14:48:56;3.90;;;3.50;;
13147;SDS011;6639;50.956;4.242;2023-09-07T14:51:24;3.90;;;3.60;;
13147;SDS011;6639;50.956;4.242;2023-09-07T14:53:52;4.30;;;3.45;;
13147;SDS011;6639;50.956;4.242;2023-09-07T14:56:19;3.70;;;3.05;;
13147;SDS011;6639;50.956;4.242;2023-09-07T14:58:46;3.90;;;3.50;;
13147;SDS011;6639;50.956;4.242;2023-09-07T15:01:13;4.07;;;3.67;;
13147;SDS011;6639;50.956;4.242;2023-09-07T15:03:40;3.30;;;3.10;;